Terminal Aerodrome Forecast
Issued by NWS Wilmington, OH

Home | Current Version | Previous Version | Text Only | Print | Product List | Glossary On
Versions: 1 2 3 4 5 6 7 8 9 10 11 12 13
000
FTUS41 KILN 261900 AAA
TAFILN
TAF AMD
KILN 261906Z 2619/2718 01012KT P6SM SCT015 BKN035
     FM262200 36010KT P6SM BKN022 BKN035
     FM270600 33005KT P6SM SCT022=

USA.gov is the U.S. government's official web portal to all federal, state and local government web resources and services.